Danvers, Illinois
Current Conditions -  °F | °C
As of 7:56 PM on Monday 20 Oct 2014 (Local Time) from KBMI Reporting Station
Scattered Clouds Scattered Clouds  
Wind Chill: 55°   Ceiling: Unl
Heat Index: 55°   Visibility: 10mi
Dew Point: 45°   Wind: 6mph
Humidity: 69%   Direction: 300°WNW
Pressure: 29.98"   Gusts: NA
Location:  40.53°N, 89.18°W
Report Text: KBMI 210056Z 30005KT 10SM SCT055 13/07 A2998 RMK AO2 T01270072 SLP153
Loading
Personal Weather Stations






























Interactive Weather Map
Tropical Storm Tracking
New forecast layout! Learn more

10-Day Weather Forecast

Advertisements
Track Severe Weather on mobile